createdAt,value
2019-05-25T00:01:26.617Z,97456.30
2019-05-25T00:03:28.194Z,97458.34
2019-05-25T00:05:29.964Z,97456.95
2019-05-25T00:07:31.542Z,97451.27
2019-05-25T00:09:33.178Z,97455.77
2019-05-25T00:11:34.986Z,97444.80
2019-05-25T00:13:36.621Z,97450.89
2019-05-25T00:15:38.291Z,97451.52
2019-05-25T00:17:39.927Z,97438.89
2019-05-25T00:19:41.829Z,97446.64
2019-05-25T00:21:43.661Z,97442.08
2019-05-25T00:23:45.335Z,97438.84
2019-05-25T00:25:47.006Z,97443.23
2019-05-25T00:27:48.788Z,97441.62
2019-05-25T00:29:50.461Z,97442.66
2019-05-25T00:31:52.108Z,97439.37
2019-05-25T00:33:53.811Z,97440.31
2019-05-25T00:35:55.579Z,97439.58
2019-05-25T00:37:57.257Z,97440.53
2019-05-25T00:39:58.942Z,97433.88
2019-05-25T00:42:00.579Z,97431.55
2019-05-25T00:44:02.233Z,97432.02
2019-05-25T00:46:03.959Z,97437.19
2019-05-25T00:48:05.736Z,97431.79
2019-05-25T00:50:07.511Z,97434.34
2019-05-25T00:52:09.158Z,97433.20
2019-05-25T00:54:10.859Z,97433.72
2019-05-25T00:56:12.632Z,97438.91
2019-05-25T00:58:14.411Z,97435.96
2019-05-25T01:00:16.091Z,97434.75
2019-05-25T01:02:17.748Z,97436.92
2019-05-25T01:04:19.378Z,97437.85
2019-05-25T01:06:21.819Z,97437.48
2019-05-25T01:08:23.448Z,97437.94
2019-05-25T01:10:25.096Z,97384.84
2019-05-25T01:12:26.944Z,97433.85
2019-05-25T01:14:28.720Z,97438.59
2019-05-25T01:16:30.314Z,97436.93
2019-05-25T01:18:31.964Z,97392.25
2019-05-25T01:20:33.604Z,97436.59
2019-05-25T01:22:35.214Z,97439.59
2019-05-25T01:24:44.260Z,97436.70
2019-05-25T01:26:38.558Z,97427.88
2019-05-25T01:28:40.151Z,97435.06
2019-05-25T01:30:42.010Z,97438.50
2019-05-25T01:32:43.693Z,97433.02
2019-05-25T01:34:45.563Z,97436.01
2019-05-25T01:36:47.198Z,97431.77
2019-05-25T01:38:48.911Z,97424.67
2019-05-25T01:40:50.571Z,97423.87
2019-05-25T01:42:52.210Z,97427.18
2019-05-25T01:44:53.897Z,97432.78
2019-05-25T01:46:55.498Z,97435.36
2019-05-25T01:48:57.112Z,97437.45
2019-05-25T01:50:58.852Z,97435.76
2019-05-25T01:53:00.482Z,97425.11
2019-05-25T01:55:02.112Z,97408.11
2019-05-25T01:57:03.975Z,97426.89
2019-05-25T01:59:05.637Z,97432.45
2019-05-25T02:01:07.264Z,97432.77
2019-05-25T02:03:08.891Z,97427.13
2019-05-25T02:05:10.774Z,97428.89
2019-05-25T02:07:12.403Z,97428.67
2019-05-25T02:09:14.056Z,97433.55
2019-05-25T02:11:15.692Z,97429.25
2019-05-25T02:13:17.290Z,97390.78
2019-05-25T02:15:19.648Z,97433.50
2019-05-25T02:17:21.282Z,97424.98
2019-05-25T02:19:22.911Z,97426.20
2019-05-25T02:21:24.566Z,97421.59
2019-05-25T02:23:26.243Z,97423.37
2019-05-25T02:25:27.922Z,97426.88
2019-05-25T02:27:29.587Z,97426.58
2019-05-25T02:29:31.455Z,97428.91
2019-05-25T02:31:33.030Z,97430.05
2019-05-25T02:33:34.719Z,97390.71
2019-05-25T02:35:36.323Z,97442.89
2019-05-25T02:37:38.070Z,97440.83
2019-05-25T02:39:39.718Z,97437.63
2019-05-25T02:41:41.582Z,97442.27
2019-05-25T02:43:43.305Z,97436.77
2019-05-25T02:45:44.968Z,97435.11
2019-05-25T02:47:46.880Z,97437.01
2019-05-25T02:49:48.506Z,97433.23
2019-05-25T02:51:50.151Z,97442.69
2019-05-25T02:53:52.413Z,97445.42
2019-05-25T02:55:54.014Z,97443.48
2019-05-25T02:57:55.590Z,97440.55
2019-05-25T02:59:57.263Z,97433.58
2019-05-25T03:01:59.077Z,97436.23
2019-05-25T03:04:00.684Z,97432.98
2019-05-25T03:06:02.596Z,97437.50
2019-05-25T03:08:04.250Z,97441.13
2019-05-25T03:10:05.936Z,97437.44
2019-05-25T03:12:07.547Z,97442.63
2019-05-25T03:14:09.118Z,97442.78
2019-05-25T03:16:10.795Z,97442.50
2019-05-25T03:18:12.469Z,97449.08
2019-05-25T03:20:14.245Z,97450.88
2019-05-25T03:22:15.882Z,97457.81
2019-05-25T03:24:17.494Z,97466.00
2019-05-25T03:26:19.122Z,97458.78
2019-05-25T03:28:20.746Z,97458.43
2019-05-25T03:30:22.518Z,97458.38
2019-05-25T03:32:24.095Z,97463.55
2019-05-25T03:34:25.722Z,97465.72
2019-05-25T03:36:27.368Z,97472.21
2019-05-25T03:38:28.967Z,97472.73
2019-05-25T03:40:30.657Z,97469.94
2019-05-25T03:42:32.455Z,97477.52
2019-05-25T03:44:34.030Z,97475.45
2019-05-25T03:46:35.700Z,97415.02
2019-05-25T03:48:37.376Z,97472.67
2019-05-25T03:50:39.276Z,97472.34
2019-05-25T03:52:41.277Z,97472.00
2019-05-25T03:54:42.918Z,97432.39
2019-05-25T03:56:44.490Z,97475.42
2019-05-25T03:58:46.147Z,97471.06
2019-05-25T04:00:47.726Z,97469.63
2019-05-25T04:02:49.523Z,97470.81
2019-05-25T04:04:51.186Z,97472.41
2019-05-25T04:06:52.816Z,97488.74
2019-05-25T04:08:54.447Z,97471.12
2019-05-25T04:10:56.497Z,97477.89
2019-05-25T04:12:58.155Z,97479.59
2019-05-25T04:14:59.845Z,97479.59
2019-05-25T04:17:01.493Z,97481.70
2019-05-25T04:19:03.305Z,97460.80
2019-05-25T04:21:04.937Z,97463.77
2019-05-25T04:23:06.589Z,97481.22
2019-05-25T04:25:08.218Z,97479.13
2019-05-25T04:27:09.890Z,97482.14
2019-05-25T04:29:11.520Z,97488.95
2019-05-25T04:31:13.114Z,97487.58
2019-05-25T04:33:14.705Z,97491.66
2019-05-25T04:35:16.351Z,97490.36
2019-05-25T04:37:17.947Z,97521.45
2019-05-25T04:39:20.293Z,97500.95
2019-05-25T04:41:21.931Z,97502.80
2019-05-25T04:43:23.595Z,97497.29
2019-05-25T04:45:25.475Z,97494.77
2019-05-25T04:47:27.427Z,97505.07
2019-05-25T04:49:29.236Z,97504.25
2019-05-25T04:51:31.009Z,97509.00
2019-05-25T04:53:32.643Z,97500.47
2019-05-25T04:55:34.271Z,97465.09
2019-05-25T04:57:36.644Z,97501.83
2019-05-25T04:59:38.270Z,97507.30
2019-05-25T05:01:39.847Z,97508.58
2019-05-25T05:03:41.486Z,97503.06
2019-05-25T05:05:43.777Z,97504.34
2019-05-25T05:07:45.415Z,97508.14
2019-05-25T05:10:01.771Z,97511.16
2019-05-25T05:11:48.777Z,97517.12
2019-05-25T05:13:50.547Z,97512.42
2019-05-25T05:15:52.246Z,97512.92
2019-05-25T05:17:53.823Z,97514.30
2019-05-25T05:19:55.464Z,97513.41
2019-05-25T05:21:57.158Z,97513.03
2019-05-25T05:23:58.797Z,97516.45
2019-05-25T05:26:00.422Z,97519.87
2019-05-25T05:28:02.016Z,97518.17
2019-05-25T05:30:03.647Z,97521.67
2019-05-25T05:32:05.318Z,97524.30
2019-05-25T05:34:06.897Z,97522.19
2019-05-25T05:36:08.899Z,97518.05
2019-05-25T05:38:10.498Z,97529.54
2019-05-25T05:40:12.374Z,97523.65
2019-05-25T05:42:14.155Z,97525.37
2019-05-25T05:44:15.795Z,97526.21
2019-05-25T05:46:17.374Z,97518.88
2019-05-25T05:48:19.216Z,97526.39
2019-05-25T05:50:20.847Z,97534.77
2019-05-25T05:52:23.172Z,97471.56
2019-05-25T05:54:24.825Z,97526.94
2019-05-25T05:56:26.419Z,97520.17
2019-05-25T05:58:28.066Z,97523.28
2019-05-25T06:00:29.697Z,97527.38
2019-05-25T06:02:31.326Z,97527.18
2019-05-25T06:04:32.998Z,97529.92
2019-05-25T06:06:34.658Z,97534.50
2019-05-25T06:08:36.460Z,97539.53
2019-05-25T06:10:38.340Z,97538.20
2019-05-25T06:12:40.245Z,97535.85
2019-05-25T06:14:41.900Z,97537.09
2019-05-25T06:16:43.566Z,97540.52
2019-05-25T06:18:45.248Z,97541.27
2019-05-25T06:20:47.285Z,97532.96
2019-05-25T06:22:48.902Z,97542.03
2019-05-25T06:24:50.537Z,97550.67
2019-05-25T06:26:52.606Z,97551.61
2019-05-25T06:28:54.235Z,97552.88
2019-05-25T06:30:55.864Z,97552.81
2019-05-25T06:32:57.573Z,97550.58
2019-05-25T06:34:59.175Z,97546.30
2019-05-25T06:37:00.801Z,97543.41
2019-05-25T06:39:02.495Z,97553.55
2019-05-25T06:41:08.568Z,97547.48
2019-05-25T06:43:07.580Z,97546.19
2019-05-25T06:45:09.182Z,97553.36
2019-05-25T06:47:11.027Z,97550.36
2019-05-25T06:49:12.685Z,97535.70
2019-05-25T06:51:14.314Z,97557.78
2019-05-25T06:53:15.942Z,97553.32
2019-05-25T06:55:17.576Z,97558.83
2019-05-25T06:57:19.614Z,97562.16
2019-05-25T06:59:21.186Z,97556.84
2019-05-25T07:01:22.811Z,97563.70
2019-05-25T07:03:24.527Z,97559.20
2019-05-25T07:05:26.164Z,97565.27
2019-05-25T07:07:27.870Z,97565.56
2019-05-25T07:09:29.562Z,97568.88
2019-05-25T07:11:31.190Z,97522.01
2019-05-25T07:13:32.851Z,97569.45
2019-05-25T07:15:34.567Z,97566.14
2019-05-25T07:17:36.165Z,97568.80
2019-05-25T07:19:37.939Z,97565.88
2019-05-25T07:21:39.795Z,97568.99
2019-05-25T07:23:41.674Z,97570.36
2019-05-25T07:25:43.287Z,97570.34
2019-05-25T07:27:58.121Z,97548.44
2019-05-25T07:29:48.127Z,97574.75
2019-05-25T07:31:49.793Z,97575.43
2019-05-25T07:33:51.474Z,97571.12
2019-05-25T07:35:53.122Z,97578.30
2019-05-25T07:37:54.754Z,97578.34
2019-05-25T07:39:56.400Z,97584.48
2019-05-25T07:41:58.072Z,97585.19
2019-05-25T07:43:59.675Z,97583.07
2019-05-25T07:46:01.346Z,97587.39
2019-05-25T07:48:02.969Z,97591.95
2019-05-25T07:50:04.968Z,97600.55
2019-05-25T07:52:06.647Z,97597.61
2019-05-25T07:54:08.420Z,97598.19
2019-05-25T07:56:10.060Z,97600.23
2019-05-25T07:58:17.264Z,97597.91
2019-05-25T08:00:13.380Z,97596.88
2019-05-25T08:02:15.074Z,97600.63
2019-05-25T08:04:16.892Z,97608.75
2019-05-25T08:06:18.664Z,97604.16
2019-05-25T08:08:20.341Z,97603.03
2019-05-25T08:10:22.014Z,97609.12
2019-05-25T08:12:24.009Z,97613.48
2019-05-25T08:14:25.622Z,97616.42
2019-05-25T08:16:27.342Z,97615.50
2019-05-25T08:18:28.982Z,97619.27
2019-05-25T08:20:30.606Z,97624.27
2019-05-25T08:22:32.480Z,97622.07
2019-05-25T08:24:34.255Z,97626.77
2019-05-25T08:26:36.022Z,97628.09
2019-05-25T08:28:37.659Z,97630.66
2019-05-25T08:30:39.327Z,97622.54
2019-05-25T08:32:41.033Z,97623.75
2019-05-25T08:34:43.747Z,97625.13
2019-05-25T08:36:45.398Z,97627.54
2019-05-25T08:38:47.084Z,97629.76
2019-05-25T08:40:48.706Z,97631.13
2019-05-25T08:42:50.437Z,97624.08
2019-05-25T08:44:52.108Z,97627.14
2019-05-25T08:46:55.541Z,97620.22
2019-05-25T08:48:55.490Z,97624.05
2019-05-25T08:50:59.565Z,97625.26
2019-05-25T08:52:59.144Z,97640.70
2019-05-25T08:55:00.910Z,97622.78
2019-05-25T08:57:02.673Z,97627.16
2019-05-25T08:59:04.354Z,97626.04
2019-05-25T09:01:06.116Z,97627.34
2019-05-25T09:03:08.117Z,97626.36
2019-05-25T09:05:10.075Z,97627.48
2019-05-25T09:07:11.768Z,97622.77
2019-05-25T09:09:13.425Z,97622.53
2019-05-25T09:11:15.078Z,97621.76
2019-05-25T09:13:16.813Z,97617.70
2019-05-25T09:15:18.543Z,97617.64
2019-05-25T09:17:20.189Z,97623.73
2019-05-25T09:19:21.939Z,97620.59
2019-05-25T09:21:24.005Z,97617.14
2019-05-25T09:23:31.484Z,97623.09
2019-05-25T09:25:33.415Z,97621.17
2019-05-25T09:27:35.852Z,97616.81
2019-05-25T09:29:38.249Z,97618.88
2019-05-25T09:31:40.803Z,97619.29
2019-05-25T09:33:42.418Z,97620.66
2019-05-25T09:35:44.039Z,97624.68
2019-05-25T09:37:45.714Z,97615.44
2019-05-25T09:39:47.300Z,97622.48
2019-05-25T09:41:48.965Z,97614.06
2019-05-25T09:43:51.041Z,97617.31
2019-05-25T09:45:52.870Z,97616.13
2019-05-25T09:47:54.502Z,97619.87
2019-05-25T09:49:56.130Z,97621.20
2019-05-25T09:51:57.735Z,97622.55
2019-05-25T09:53:59.466Z,97622.45
2019-05-25T09:56:01.098Z,97614.95
2019-05-25T09:58:02.715Z,97614.69
2019-05-25T10:00:04.355Z,97616.22
2019-05-25T10:02:06.046Z,97617.80
2019-05-25T10:04:07.616Z,97623.39
2019-05-25T10:06:12.674Z,97623.77
2019-05-25T10:08:11.119Z,97620.92
2019-05-25T10:10:12.753Z,97613.83
2019-05-25T10:12:16.293Z,97613.00
2019-05-25T10:14:16.535Z,97613.31
2019-05-25T10:16:18.163Z,97614.62
2019-05-25T10:18:19.870Z,97616.80
2019-05-25T10:20:21.514Z,97613.63
2019-05-25T10:22:23.161Z,97618.75
2019-05-25T10:24:24.803Z,97615.45
2019-05-25T10:26:26.408Z,97612.98
2019-05-25T10:28:28.041Z,97611.95
2019-05-25T10:30:29.803Z,97610.06
2019-05-25T10:32:31.770Z,97614.45
2019-05-25T10:34:33.395Z,97614.63
2019-05-25T10:36:35.320Z,97614.33
2019-05-25T10:38:37.014Z,97611.96
2019-05-25T10:40:38.784Z,97605.83
2019-05-25T10:42:40.910Z,97610.63
2019-05-25T10:44:42.650Z,97606.36
2019-05-25T10:46:44.298Z,97601.63
2019-05-25T10:48:45.950Z,97602.64
2019-05-25T10:50:47.548Z,97599.99
2019-05-25T10:52:49.182Z,97599.89
2019-05-25T10:54:50.921Z,97599.39
2019-05-25T10:56:52.554Z,97596.83
2019-05-25T10:58:54.363Z,97596.81
2019-05-25T11:00:55.938Z,97594.73
2019-05-25T11:02:57.599Z,97594.28
2019-05-25T11:04:59.277Z,97595.98
2019-05-25T11:07:00.926Z,97590.52
2019-05-25T11:09:02.983Z,97591.66
2019-05-25T11:11:04.636Z,97590.04
2019-05-25T11:13:06.350Z,97593.96
2019-05-25T11:15:08.011Z,97590.62
2019-05-25T11:17:09.631Z,97587.55
2019-05-25T11:19:11.894Z,97589.31
2019-05-25T11:21:13.499Z,97593.67
2019-05-25T11:23:15.107Z,97593.16
2019-05-25T11:25:16.944Z,97588.14
2019-05-25T11:27:18.720Z,97589.17
2019-05-25T11:29:20.742Z,97582.86
2019-05-25T11:31:22.377Z,97586.28
2019-05-25T11:33:24.006Z,97584.88
2019-05-25T11:35:26.094Z,97585.34
2019-05-25T11:37:27.744Z,97588.46
2019-05-25T11:39:29.382Z,97589.32
2019-05-25T11:41:31.146Z,97593.16
2019-05-25T11:43:32.726Z,97596.58
2019-05-25T11:45:34.355Z,97595.22
2019-05-25T11:47:36.030Z,97598.09
2019-05-25T11:49:38.293Z,97593.85
2019-05-25T11:51:39.958Z,97602.80
2019-05-25T11:53:41.709Z,97602.20
2019-05-25T11:55:43.378Z,97598.05
2019-05-25T11:57:45.001Z,97604.97
2019-05-25T11:59:46.606Z,97606.27
2019-05-25T12:01:48.282Z,97610.34
2019-05-25T12:03:49.930Z,97620.61
2019-05-25T12:05:51.666Z,97619.05
2019-05-25T12:07:53.430Z,97620.44
2019-05-25T12:09:55.066Z,97621.44
2019-05-25T12:11:56.758Z,97626.23
2019-05-25T12:13:58.411Z,97631.08
2019-05-25T12:16:00.038Z,97622.28
2019-05-25T12:18:01.799Z,97621.94
2019-05-25T12:20:03.450Z,97616.58
2019-05-25T12:22:05.359Z,97620.91
2019-05-25T12:24:07.005Z,97628.02
2019-05-25T12:26:08.583Z,97622.37
2019-05-25T12:28:10.156Z,97620.23
2019-05-25T12:30:11.847Z,97624.00
2019-05-25T12:32:13.543Z,97618.04
2019-05-25T12:34:15.118Z,97612.50
2019-05-25T12:36:16.695Z,97616.39
2019-05-25T12:38:18.344Z,97590.84
2019-05-25T12:40:20.866Z,97609.49
2019-05-25T12:42:22.505Z,97611.48
2019-05-25T12:44:24.278Z,97611.19
2019-05-25T12:46:26.178Z,97608.41
2019-05-25T12:48:28.501Z,97604.97
2019-05-25T12:50:30.572Z,97606.16
2019-05-25T12:52:32.302Z,97609.38
2019-05-25T12:54:33.946Z,97602.91
2019-05-25T12:56:35.573Z,97605.13
2019-05-25T12:58:37.326Z,97601.89
2019-05-25T13:00:38.959Z,97592.72
2019-05-25T13:02:40.580Z,97592.86
2019-05-25T13:04:42.367Z,97595.77
2019-05-25T13:06:44.026Z,97597.80
2019-05-25T13:08:45.694Z,97598.39
2019-05-25T13:10:47.345Z,97594.38
2019-05-25T13:12:49.007Z,97590.95
2019-05-25T13:14:50.717Z,97596.42
2019-05-25T13:16:52.606Z,97593.52
2019-05-25T13:18:54.258Z,97592.73
2019-05-25T13:20:55.856Z,97594.52
2019-05-25T13:22:57.943Z,97597.95
2019-05-25T13:24:59.577Z,97599.69
2019-05-25T13:27:01.270Z,97599.27
2019-05-25T13:29:02.876Z,97596.17
2019-05-25T13:31:11.765Z,97593.16
2019-05-25T13:33:06.314Z,97594.34
2019-05-25T13:35:08.070Z,97593.55
2019-05-25T13:37:09.955Z,97595.97
2019-05-25T13:39:11.538Z,97594.34
2019-05-25T13:41:13.329Z,97592.55
2019-05-25T13:43:14.978Z,97591.25
2019-05-25T13:45:16.654Z,97595.75
2019-05-25T13:47:18.287Z,97596.00
2019-05-25T13:49:19.935Z,97592.13
2019-05-25T13:51:21.566Z,97590.41
2019-05-25T13:53:23.166Z,97595.54
2019-05-25T13:55:24.916Z,97590.73
2019-05-25T13:57:26.550Z,97592.83
2019-05-25T13:59:28.178Z,97594.45
2019-05-25T14:01:30.607Z,97586.73
2019-05-25T14:03:32.346Z,97585.21
2019-05-25T14:05:33.978Z,97593.58
2019-05-25T14:07:35.887Z,97594.66
2019-05-25T14:09:37.487Z,97589.78
2019-05-25T14:11:39.121Z,97589.88
2019-05-25T14:13:40.776Z,97592.10
2019-05-25T14:15:42.474Z,97594.34
2019-05-25T14:17:44.054Z,97588.46
2019-05-25T14:19:45.692Z,97585.55
2019-05-25T14:21:47.295Z,97589.85
2019-05-25T14:23:48.922Z,97592.99
2019-05-25T14:25:50.559Z,97589.27
2019-05-25T14:27:52.318Z,97586.86
2019-05-25T14:29:53.986Z,97588.57
2019-05-25T14:31:55.762Z,97589.89
2019-05-25T14:33:57.346Z,97592.11
2019-05-25T14:35:58.978Z,97586.27
2019-05-25T14:38:01.073Z,97582.56
2019-05-25T14:40:03.379Z,97581.64
2019-05-25T14:42:05.214Z,97587.63
2019-05-25T14:44:06.812Z,97581.73
2019-05-25T14:46:08.508Z,97590.27
2019-05-25T14:48:10.083Z,97587.72
2019-05-25T14:50:11.855Z,97587.38
2019-05-25T14:52:13.732Z,97579.33
2019-05-25T14:54:15.313Z,97585.31
2019-05-25T14:56:17.078Z,97580.28
2019-05-25T14:58:18.724Z,97579.08
2019-05-25T15:00:20.428Z,97582.09
2019-05-25T15:02:22.107Z,97582.16
2019-05-25T15:04:23.729Z,97579.17
2019-05-25T15:06:25.550Z,97580.30
2019-05-25T15:08:27.226Z,97587.27
2019-05-25T15:10:28.890Z,97575.59
2019-05-25T15:12:30.674Z,97580.96
2019-05-25T15:14:32.749Z,97577.94
2019-05-25T15:16:34.382Z,97571.85
2019-05-25T15:18:36.011Z,97577.65
2019-05-25T15:20:37.780Z,97571.50
2019-05-25T15:22:39.438Z,97573.62
2019-05-25T15:24:41.919Z,97573.60
2019-05-25T15:26:43.522Z,97570.66
2019-05-25T15:28:45.397Z,97569.89
2019-05-25T15:30:47.479Z,97573.83
2019-05-25T15:32:49.117Z,97574.75
2019-05-25T15:34:50.762Z,97569.37
2019-05-25T15:36:52.406Z,97579.66
2019-05-25T15:38:54.047Z,97578.05
2019-05-25T15:40:55.748Z,97566.45
2019-05-25T15:42:57.421Z,97568.54
2019-05-25T15:44:59.407Z,97565.56
2019-05-25T15:47:04.708Z,97543.75
2019-05-25T15:49:02.953Z,97569.40
2019-05-25T15:51:04.630Z,97571.16
2019-05-25T15:53:06.534Z,97567.77
2019-05-25T15:55:08.218Z,97571.69
2019-05-25T15:57:09.822Z,97507.64
2019-05-25T15:59:11.540Z,97567.70
2019-05-25T16:01:13.204Z,97565.47
2019-05-25T16:03:14.866Z,97584.61
2019-05-25T16:05:16.495Z,97563.26
2019-05-25T16:07:18.070Z,97563.70
2019-05-25T16:09:19.901Z,97566.12
2019-05-25T16:11:21.569Z,97566.08
2019-05-25T16:13:23.571Z,97563.06
2019-05-25T16:15:25.338Z,97562.99
2019-05-25T16:17:27.108Z,97564.60
2019-05-25T16:19:28.690Z,97565.35
2019-05-25T16:21:30.338Z,97564.06
2019-05-25T16:23:31.967Z,97567.73
2019-05-25T16:25:33.615Z,97562.39
2019-05-25T16:27:35.446Z,97568.90
2019-05-25T16:29:37.091Z,97569.66
2019-05-25T16:31:38.729Z,97574.55
2019-05-25T16:33:40.967Z,97569.97
2019-05-25T16:35:42.890Z,97567.44
2019-05-25T16:37:45.112Z,97566.47
2019-05-25T16:39:47.057Z,97568.95
2019-05-25T16:41:49.066Z,97576.20
2019-05-25T16:43:50.716Z,97566.05
2019-05-25T16:45:52.489Z,97569.13
2019-05-25T16:47:54.155Z,97560.23
2019-05-25T16:49:55.758Z,97565.02
2019-05-25T16:51:57.339Z,97564.62
2019-05-25T16:53:58.935Z,97569.37
2019-05-25T16:56:00.572Z,97565.20
2019-05-25T16:58:02.942Z,97574.61
2019-05-25T17:00:04.547Z,97570.84
2019-05-25T17:02:06.203Z,97565.78
2019-05-25T17:04:07.926Z,97573.05
2019-05-25T17:06:09.643Z,97576.48
2019-05-25T17:08:11.516Z,97569.32
2019-05-25T17:10:13.167Z,97566.81
2019-05-25T17:12:14.798Z,97568.98
2019-05-25T17:14:17.071Z,97570.73
2019-05-25T17:16:18.724Z,97573.30
2019-05-25T17:18:20.501Z,97567.40
2019-05-25T17:20:22.734Z,97571.67
2019-05-25T17:22:24.462Z,97576.02
2019-05-25T17:24:26.239Z,97571.76
2019-05-25T17:26:27.870Z,97565.45
2019-05-25T17:28:29.529Z,97571.50
2019-05-25T17:30:31.208Z,97566.89
2019-05-25T17:32:32.842Z,97574.58
2019-05-25T17:34:34.762Z,97581.91
2019-05-25T17:36:36.401Z,97575.53
2019-05-25T17:38:37.998Z,97587.85
2019-05-25T17:40:39.578Z,97579.97
2019-05-25T17:42:41.233Z,97580.28
2019-05-25T17:44:42.903Z,97586.14
2019-05-25T17:46:44.541Z,97586.84
2019-05-25T17:48:46.140Z,97584.09
2019-05-25T17:50:47.790Z,97582.24
2019-05-25T17:52:49.418Z,97583.93
2019-05-25T17:54:51.207Z,97588.62
2019-05-25T17:56:52.911Z,97579.27
2019-05-25T17:58:54.568Z,97581.55
2019-05-25T18:00:56.221Z,97581.16
2019-05-25T18:02:57.914Z,97583.38
2019-05-25T18:04:59.541Z,97590.33
2019-05-25T18:07:01.198Z,97592.91
2019-05-25T18:09:02.798Z,97581.92
2019-05-25T18:11:04.435Z,97594.33
2019-05-25T18:13:06.039Z,97600.13
2019-05-25T18:15:07.666Z,97595.30
2019-05-25T18:17:09.296Z,97596.06
2019-05-25T18:19:10.919Z,97598.53
2019-05-25T18:21:12.565Z,97601.77
2019-05-25T18:23:14.190Z,97598.28
2019-05-25T18:25:15.839Z,97596.05
2019-05-25T18:27:17.480Z,97600.31
2019-05-25T18:29:19.147Z,97605.92
2019-05-25T18:31:20.793Z,97605.95
2019-05-25T18:33:22.446Z,97611.58
2019-05-25T18:35:24.212Z,97620.17
2019-05-25T18:37:25.864Z,97616.48
2019-05-25T18:39:27.558Z,97616.55
2019-05-25T18:41:29.194Z,97622.97
2019-05-25T18:43:30.825Z,97622.03
2019-05-25T18:45:32.524Z,97626.11
2019-05-25T18:47:34.139Z,97626.91
2019-05-25T18:49:35.854Z,97619.30
2019-05-25T18:51:37.514Z,97627.38
2019-05-25T18:53:39.177Z,97625.77
2019-05-25T18:55:40.850Z,97622.82
2019-05-25T18:57:42.504Z,97627.98
2019-05-25T18:59:44.158Z,97636.79
2019-05-25T19:01:45.824Z,97637.98
2019-05-25T19:03:47.407Z,97633.61
2019-05-25T19:05:49.000Z,97635.58
2019-05-25T19:07:50.626Z,97628.69
2019-05-25T19:09:52.273Z,97629.78
2019-05-25T19:11:53.943Z,97628.02
2019-05-25T19:13:55.574Z,97631.73
2019-05-25T19:15:57.146Z,97629.50
2019-05-25T19:17:59.129Z,97636.36
2019-05-25T19:20:00.725Z,97627.50
2019-05-25T19:22:02.404Z,97637.23
2019-05-25T19:24:04.007Z,97641.58
2019-05-25T19:26:05.738Z,97643.92
2019-05-25T19:28:07.440Z,97644.38
2019-05-25T19:30:09.014Z,97646.17
2019-05-25T19:32:10.673Z,97644.13
2019-05-25T19:34:12.326Z,97647.96
2019-05-25T19:36:13.984Z,97653.39
2019-05-25T19:38:15.860Z,97655.52
2019-05-25T19:40:17.510Z,97656.31
2019-05-25T19:42:19.174Z,97649.89
2019-05-25T19:44:20.846Z,97651.96
2019-05-25T19:46:22.507Z,97650.23
2019-05-25T19:48:24.149Z,97657.91
2019-05-25T19:50:25.774Z,97654.08
2019-05-25T19:52:27.407Z,97654.17
2019-05-25T19:54:29.091Z,97655.09
2019-05-25T19:56:30.831Z,97652.20
2019-05-25T19:58:32.462Z,97653.99
2019-05-25T20:00:34.161Z,97661.72
2019-05-25T20:02:35.786Z,97656.97
2019-05-25T20:04:37.487Z,97655.68
2019-05-25T20:06:39.066Z,97663.27
2019-05-25T20:08:40.694Z,97663.55
2019-05-25T20:10:42.708Z,97664.31
2019-05-25T20:12:44.352Z,97666.77
2019-05-25T20:14:46.013Z,97670.86
2019-05-25T20:16:47.701Z,97667.78
2019-05-25T20:18:49.339Z,97671.59
2019-05-25T20:20:51.003Z,97675.50
2019-05-25T20:22:52.702Z,97674.30
2019-05-25T20:24:54.355Z,97674.80
2019-05-25T20:26:55.955Z,97668.56
2019-05-25T20:28:57.610Z,97671.20
2019-05-25T20:30:59.238Z,97677.32
2019-05-25T20:33:01.000Z,97678.63
2019-05-25T20:35:02.611Z,97680.77
2019-05-25T20:37:04.329Z,97687.30
2019-05-25T20:39:06.002Z,97691.67
2019-05-25T20:41:07.601Z,97694.34
2019-05-25T20:43:09.294Z,97650.95
2019-05-25T20:45:10.955Z,97697.49
2019-05-25T20:47:12.607Z,97696.68
2019-05-25T20:49:14.246Z,97658.70
2019-05-25T20:51:15.894Z,97697.30
2019-05-25T20:53:17.531Z,97703.77
2019-05-25T20:55:19.130Z,97707.27
2019-05-25T20:57:21.038Z,97702.22
2019-05-25T20:59:22.672Z,97709.06
2019-05-25T21:01:24.363Z,97703.60
2019-05-25T21:03:25.959Z,97708.35
2019-05-25T21:05:27.586Z,97705.88
2019-05-25T21:07:29.291Z,97713.55
2019-05-25T21:09:30.883Z,97714.89
2019-05-25T21:11:32.533Z,97718.79
2019-05-25T21:13:34.131Z,97675.70
2019-05-25T21:15:35.760Z,97721.87
2019-05-25T21:17:37.462Z,97729.16
2019-05-25T21:19:39.117Z,97728.34
2019-05-25T21:21:40.810Z,97732.22
2019-05-25T21:23:42.462Z,97735.22
2019-05-25T21:25:44.042Z,97720.98
2019-05-25T21:27:45.784Z,97734.41
2019-05-25T21:29:47.373Z,97741.59
2019-05-25T21:31:49.036Z,97739.11
2019-05-25T21:33:50.806Z,97740.48
2019-05-25T21:36:06.832Z,97750.95
2019-05-25T21:37:54.082Z,97750.67
2019-05-25T21:39:55.774Z,97752.50
2019-05-25T21:41:57.398Z,97755.55
2019-05-25T21:43:59.038Z,97752.93
2019-05-25T21:46:00.672Z,97752.59
2019-05-25T21:48:02.325Z,97751.83
2019-05-25T21:50:03.994Z,97756.56
2019-05-25T21:52:05.620Z,97756.52
2019-05-25T21:54:07.283Z,97758.23
2019-05-25T21:56:08.943Z,97762.63
2019-05-25T21:58:11.138Z,97756.52
2019-05-25T22:00:12.788Z,97760.67
2019-05-25T22:02:14.457Z,97762.58
2019-05-25T22:04:16.122Z,97768.28
2019-05-25T22:06:24.238Z,97760.30
2019-05-25T22:08:19.509Z,97757.14
2019-05-25T22:10:21.122Z,97753.05
2019-05-25T22:12:23.504Z,97751.23
2019-05-25T22:14:26.063Z,97752.41
2019-05-25T22:16:27.643Z,97748.47
2019-05-25T22:18:29.373Z,97755.14
2019-05-25T22:20:31.062Z,97759.18
2019-05-25T22:22:32.731Z,97748.73
2019-05-25T22:24:34.308Z,97750.44
2019-05-25T22:26:36.306Z,97752.70
2019-05-25T22:28:44.827Z,97755.38
2019-05-25T22:30:39.670Z,97752.58
2019-05-25T22:32:41.346Z,97753.08
2019-05-25T22:34:42.970Z,97750.87
2019-05-25T22:36:44.569Z,97754.70
2019-05-25T22:38:46.199Z,97757.95
2019-05-25T22:40:47.775Z,97755.98
2019-05-25T22:42:50.147Z,97752.91
2019-05-25T22:44:51.815Z,97751.59
2019-05-25T22:46:53.440Z,97748.75
2019-05-25T22:48:55.090Z,97742.48
2019-05-25T22:50:56.733Z,97752.42
2019-05-25T22:52:58.358Z,97747.36
2019-05-25T22:54:59.982Z,97742.80
2019-05-25T22:57:01.650Z,97744.41
2019-05-25T22:59:03.280Z,97752.25
2019-05-25T23:01:04.931Z,97749.92
2019-05-25T23:03:06.610Z,97753.94
2019-05-25T23:05:08.248Z,97754.48
2019-05-25T23:07:09.915Z,97749.51
2019-05-25T23:09:11.627Z,97753.91
2019-05-25T23:11:13.249Z,97750.57
2019-05-25T23:13:14.898Z,97754.51
2019-05-25T23:15:16.507Z,97758.90
2019-05-25T23:17:18.172Z,97755.99
2019-05-25T23:19:19.750Z,97753.94
2019-05-25T23:21:21.394Z,97757.02
2019-05-25T23:23:23.051Z,97762.64
2019-05-25T23:25:24.687Z,97760.58
2019-05-25T23:27:26.378Z,97761.08
2019-05-25T23:29:27.980Z,97761.53
2019-05-25T23:31:29.616Z,97759.05
2019-05-25T23:33:31.248Z,97755.34
2019-05-25T23:35:32.875Z,97756.62
2019-05-25T23:37:34.519Z,97752.44
2019-05-25T23:39:36.198Z,97754.18
2019-05-25T23:41:37.912Z,97755.11
2019-05-25T23:43:39.575Z,97754.75
2019-05-25T23:45:41.146Z,97756.09
2019-05-25T23:47:42.841Z,97755.73
2019-05-25T23:49:44.438Z,97753.70